首页
METAR-TAF:

METAR-TAF

机场 :

Bogue_Field/MCALF

Swansboro, 北卡罗来纳州, 美国

纬度: 34-41-34N, 经度: 077-01-46W, 海拔: 6米

当前天气观测

该预报发布于1小时和7分钟前的12:57 UTC
风速9节,风向北转西北,有时为22节阵风
温度 3°C
湿度 87%
气压 1020 hPa
能見度: 8.0公里
散云层高于10000英尺
轻雾

METAR: KNJM 111257Z AUTO 33009G22KT 5SM BR SCT100 03/01 A3011 RMK AO2 SLP199 T00280006 $

时间: 09:04 (14:04 UTC)


TAF: 丢失

超过4000个机场的气象观测和天气预报(METAR&TAF报告)。

可查询的气象台以黄色和红色小点在地图上表示。

将鼠标移到小点上方,可查看气象台名称。

然后点击查看天气观测和预报。

如需切换地图:点击带黑十字的绿色按钮放大地图;点击带横线的绿色按钮缩小地图;或者点击绿色箭头查看邻近地区的地图。


METAR-TAF: